Light Thunderstorm Current Weather (METAR) For Antalya Airport

All times on the weather descriptions are local

Observed at 01:50 - (28 days ago)

Light Thunderstorm

15°C

Light Thunderstorm , Rain
Clouds: Few Clouds at 1,500ft, Broken Clouds at 2,500ft
Wind: Variable at 04 knots
Visibility: Greater than 10km
QNH: 1010
Dew Point: 11°C
Runway in Use: Unable to determine, wind is variable

Sunrise Today: 06:27
Sunset Today: 17:51

Forecast Weather (TAF) For Antalya Airport

Issued at 02:00 - (29 mins ago)


Runway in Use: Unable to determine, wind is clam

Forecast valid until 02:00 on Saturday

METAR/TAF RAW METAR / TAF

LTAI 272350Z VRB04KT 9999 FEW015CB BKN025 15/11 Q1010 BECMG -TSRA

Weather Widget

Put weather from any of our airports on your website with our weather widget.

Find Another Search

Airport Search


Please Wait Please Wait - Loading
Close
Close

Login

Username:

Password:

Remember Me:

Remember me on this computer

Forgotten your password? Get a reset password sent to your registered e-mail address

Close

User Private Message

Subject:

Message: